Gorham, IL (62940)

12:18 AM CDT on August 30, 2015 (GMT -0500)
Southern Illinois | | Change Station
CLOSE
Current Station
Airport
Location: Carbondale,
Elevation: 410 ft
Nearby Weather Stations

Elev 410 ft 37.78 °N, 89.25 °W | Updated 26 minutes ago

Rain
Rain
71 °F
Feels Like 71 °F
N
5
Wind Variable Wind from West

Today
High -- | Low -- °F
--% Chance of Precip.
Yesterday
High -- | Low -- °F
Precip. -- in
6:25 AM 7:30 PM
Full, 100% visible
Pressure 30.04 in
Visibility 6.0 miles
Clouds Scattered Clouds 5000 ft
Mostly Cloudy 10000 ft
Dew Point 69 °F
Humidity 93%
Rainfall 0.08 in
Snow Depth Not available.
UV 0 out of 12
Pollen 10.50 out of 12
Air Quality Not available.
Flu Activity Not available.
METAR KMDH 300452Z AUTO 26004KT 6SM -RA BR SCT050 BKN100 22/21 A3005 RMK AO2 RAB09 SLP172 P0006 T02170206
Pressure 30.04 in
Visibility 6.0 miles
Clouds Scattered Clouds 5000 ft
Mostly Cloudy 10000 ft
Dew Point 69 °F
Humidity 93%
Rainfall 0.08 in
Snow Depth Not available.
UV 0 out of 12
Pollen 10.50 out of 12
Air Quality Not available.
Flu Activity Not available.
METAR KMDH 300452Z AUTO 26004KT 6SM -RA BR SCT050 BKN100 22/21 A3005 RMK AO2 RAB09 SLP172 P0006 T02170206

10-Day Weather Forecast

×

Almanac

Astronomy

Aug. 30, 2015 Rise Set
Actual Time
Civil Twilight
Nautical Twilight
Astronomical Twilight
Moon
Length of Visible Light
Length of Day
Tomorrow will be .
, % of the Moon is Illuminated

Today's Extremes

State Highs State Lows

Community

WunderPhotos

Upload Photos

1,850,895 photos uploaded!

WunderBlogs® & News

Nearby

Air Quality

  Air Quality AQ Index Pollutant
Not available.

Snow Depth

Station Depth Elevation

Earthquake Activity

City Distance Mag. Time & Date
Minimum magnitude displayed is 2.5.

Coastal Water Temperatures

Place Temperature

Stations

Nearby Weather Stations

Station Location Temp. Windchill Dew Point Humidity Wind Precip. Elev Updated Type